Ana Sayfa
METAR-TAF:

METAR-TAF

Havaalanları :

Majuro, Marshall Adaları

Enlem: 07-04N, Boylam: 171-17E, yükseklik: 2 m

Güncel hava durumu gözlemi

Rapor saat 21:50 UTC de 30 dakika önce yapıldı.
Rüzgar güneybatıdan 9 kt
Sıcaklık 29°C
Nem 79%
Basınç 1011 hPa
Görüş mesafesi: 24.1 km
1500 ft yükseklikte az bulutlu
5000 ft yükseklikte parçalı bulutlu
30000 ft yükseklikte parçalı çok bulutlu

METAR: PKMJ 222150Z 22009KT 15SM FEW015 SCT050 BKN300 29/25 A2985

Saat: 10:20 (22:20 UTC)

Tahmin

Rapor saat 17:26 UTC de 4 saat ve 54 dakika önce yapıldı.
Ayın 22'si saat 18 UTC'den ayın 23'si saat 18 UTC'ye kadar geçerli Tahmin
Rüzgar batı/kuzeybatıdan 6 kt
Görüş mesafesi: 10 km
1500 ft yükseklikte parçalı bulutlu
4500 ft yükseklikte parçalı bulutlu
15000 ft yükseklikte parçalı çok bulutlu
Civarda sağanaklar

TAF: PKMJ 221726Z 2218/2318 29006KT P6SM VCSH SCT015 SCT045 BKN150

4.000'den fazla havaalanı için hava durumu gözlemleri ve tahminleri (METAR ve TAF raporları).

Kullanılabilir istasyonlar harita üzerinde sarı ve kırmızı noktalarla gösterilir.

İstasyonun adını görmek için fareyi noktanın üzerinde gezdirin.

Sonrasında hava gözlem ve tahminlerini görmek için tıklayın.

Haritayı değiştirmek için: yaklaştırmak için siyah artı işaretli yeşil düğmeye ve uzaklaştırmak için de eksi işaretli düğmeye hızla tıklayın; bitişik haritalar için yeşil okları kullanın.


METAR-TAF: